Time;durP1;ratioP1;P1;durP2;ratioP2;P2;SDS_P1;SDS_P2;PMS_P1;PMS_P2;Temp;Humidity;BMP_temperature;BMP_pressure;BME280_temperature;BME280_humidity;BME280_pressure;Samples;Min_cycle;Max_cycle;Signal;HPM_P1;HPM_P2
2021/12/03 00:01:26;;;;;;;19.52;12.20;;;2.70;82.50;;;;;;5024766;28;20029;-77
2021/12/03 00:03:52;;;;;;;16.08;11.50;;;2.70;82.50;;;;;;5037392;28;20112;-77
2021/12/03 00:06:18;;;;;;;24.63;13.13;;;2.70;82.20;;;;;;5037080;28;20045;-77
2021/12/03 00:08:44;;;;;;;21.75;13.75;;;2.70;82.20;;;;;;5019873;28;20037;-77
2021/12/03 00:11:11;;;;;;;18.33;11.18;;;2.70;82.00;;;;;;5017879;28;20028;-78
2021/12/03 00:13:41;;;;;;;17.10;12.63;;;2.70;81.90;;;;;;5016115;28;20057;-77
2021/12/03 00:16:07;;;;;;;21.10;11.93;;;2.70;81.90;;;;;;5017039;28;20088;-77
2021/12/03 00:18:34;;;;;;;23.45;11.30;;;2.70;82.00;;;;;;5016860;28;20476;-77
2021/12/03 00:21:04;;;;;;;20.40;12.43;;;2.70;82.20;;;;;;5017217;28;20097;-77
2021/12/03 00:23:31;;;;;;;19.65;12.25;;;2.80;82.00;;;;;;5017496;28;20030;-77
2021/12/03 00:26:00;;;;;;;18.13;12.63;;;2.80;82.00;;;;;;5017379;28;20449;-77
2021/12/03 00:28:27;;;;;;;17.30;13.55;;;2.90;82.00;;;;;;5015402;28;20053;-77
2021/12/03 00:30:55;;;;;;;18.55;12.13;;;3.00;82.00;;;;;;5036199;28;20055;-77
2021/12/03 00:33:21;;;;;;;16.13;11.93;;;3.00;82.00;;;;;;5037024;28;20032;-78
2021/12/03 00:35:47;;;;;;;19.55;11.40;;;3.00;82.00;;;;;;5036797;28;20017;-78
2021/12/03 00:38:15;;;;;;;25.92;15.65;;;3.00;81.90;;;;;;5036708;28;20075;-77
2021/12/03 00:40:40;;;;;;;19.75;13.75;;;3.00;81.90;;;;;;5036589;28;20684;-78
2021/12/03 00:43:07;;;;;;;27.20;16.23;;;3.00;81.80;;;;;;5036676;28;20048;-78
2021/12/03 00:45:33;;;;;;;22.05;16.17;;;3.00;82.00;;;;;;5036029;28;20021;-77
2021/12/03 00:48:03;;;;;;;28.88;15.65;;;3.00;82.30;;;;;;5036845;28;20036;-77
2021/12/03 00:50:29;;;;;;;;;;;3.00;82.00;;;;;;5036861;28;20645;-78
2021/12/03 00:52:56;;;;;;;19.40;14.05;;;3.00;82.10;;;;;;5036378;28;19915;-78
2021/12/03 00:55:23;;;;;;;21.08;14.90;;;3.10;81.90;;;;;;5020165;28;20034;-78
2021/12/03 00:57:49;;;;;;;22.00;14.57;;;3.10;81.90;;;;;;5016739;28;20022;-78
2021/12/03 01:00:18;;;;;;;21.73;15.23;;;3.10;81.70;;;;;;5017329;28;20033;-77
2021/12/03 01:02:45;;;;;;;23.65;14.82;;;3.10;81.90;;;;;;5036067;28;20019;-78
2021/12/03 01:05:10;;;;;;;27.27;15.13;;;3.20;82.00;;;;;;5036485;28;20120;-78
2021/12/03 01:07:36;;;;;;;30.92;18.08;;;3.20;82.00;;;;;;5029799;28;20064;-78
2021/12/03 01:10:04;;;;;;;29.77;16.98;;;3.20;82.10;;;;;;5015036;28;20065;-77
2021/12/03 01:12:29;;;;;;;24.50;16.23;;;3.30;82.00;;;;;;5016634;28;20053;-78
2021/12/03 01:14:55;;;;;;;22.63;14.68;;;3.30;81.70;;;;;;5016554;28;20034;-78
2021/12/03 01:17:22;;;;;;;17.35;11.55;;;3.20;81.70;;;;;;5016340;28;20022;-78
2021/12/03 01:19:48;;;;;;;24.50;14.10;;;3.30;81.60;;;;;;5015952;28;20045;-78
2021/12/03 01:22:14;;;;;;;24.23;14.93;;;3.20;81.60;;;;;;5016306;28;20179;-77
2021/12/03 01:24:39;;;;;;;23.60;12.82;;;3.20;81.90;;;;;;5015054;28;20132;-78
2021/12/03 01:27:05;;;;;;;25.38;15.80;;;3.20;82.00;;;;;;5016125;28;20511;-78
2021/12/03 01:29:31;;;;;;;21.80;13.90;;;3.20;82.10;;;;;;5015458;28;20143;-78
2021/12/03 01:31:57;;;;;;;21.20;13.82;;;3.20;82.10;;;;;;5016194;28;20026;-78
2021/12/03 01:34:23;;;;;;;17.40;13.60;;;3.20;82.10;;;;;;5016094;28;20084;-78
2021/12/03 01:36:49;;;;;;;22.83;13.30;;;3.20;82.10;;;;;;5015926;28;20029;-78
2021/12/03 01:39:15;;;;;;;21.70;13.70;;;3.20;82.10;;;;;;5014664;28;20057;-78
2021/12/03 01:41:42;;;;;;;23.52;13.88;;;3.10;82.30;;;;;;5015960;28;20022;-78
2021/12/03 01:44:08;;;;;;;20.05;11.93;;;3.20;82.10;;;;;;5014823;28;20103;-78
2021/12/03 01:46:34;;;;;;;22.08;14.10;;;3.10;82.20;;;;;;5021636;28;20030;-78
2021/12/03 01:49:01;;;;;;;20.08;11.52;;;3.20;82.50;;;;;;5015863;28;20477;-78
2021/12/03 01:51:27;;;;;;;20.42;12.30;;;3.20;82.20;;;;;;5015787;28;20033;-78
2021/12/03 01:53:53;;;;;;;20.80;12.98;;;3.20;82.20;;;;;;5015642;28;20025;-78
2021/12/03 01:56:22;;;;;;;16.10;10.88;;;3.20;82.30;;;;;;5015777;28;20105;-78
2021/12/03 01:58:50;;;;;;;19.15;11.80;;;3.20;82.10;;;;;;5015681;28;20022;-78
2021/12/03 02:01:22;;;;;;;23.85;11.68;;;3.30;82.20;;;;;;5014368;28;20026;-79
2021/12/03 02:03:52;;;;;;;21.05;12.68;;;3.40;82.30;;;;;;5016162;28;20021;-78
2021/12/03 02:06:19;;;;;;;14.73;11.57;;;3.30;82.30;;;;;;5015665;28;20064;-78
2021/12/03 02:08:44;;;;;;;25.50;12.32;;;3.40;82.30;;;;;;5015302;28;20084;-78
2021/12/03 02:11:11;;;;;;;16.45;11.30;;;3.40;82.10;;;;;;5015702;28;20025;-78
2021/12/03 02:13:38;;;;;;;18.30;11.95;;;3.40;82.20;;;;;;5015198;28;20064;-78
2021/12/03 02:16:08;;;;;;;16.25;10.13;;;3.40;82.30;;;;;;5015903;28;20035;-78
2021/12/03 02:18:41;;;;;;;14.52;10.45;;;3.40;82.40;;;;;;5015227;28;20022;-77
2021/12/03 02:21:08;;;;;;;16.50;10.60;;;3.40;82.60;;;;;;5015424;28;20037;-78
2021/12/03 02:23:34;;;;;;;16.95;11.10;;;3.40;82.40;;;;;;5015348;28;20040;-78
2021/12/03 02:26:00;;;;;;;20.58;11.35;;;3.40;82.00;;;;;;5028234;28;20445;-78
2021/12/03 02:28:33;;;;;;;13.90;9.65;;;3.40;82.10;;;;;;5015093;28;20386;-78
2021/12/03 02:30:58;;;;;;;15.52;10.35;;;3.30;82.10;;;;;;5015175;28;20113;-78
2021/12/03 02:33:25;;;;;;;16.20;10.88;;;3.20;82.60;;;;;;5013722;28;20045;-78
2021/12/03 02:35:51;;;;;;;14.57;9.40;;;3.20;82.60;;;;;;5015324;28;20057;-78
2021/12/03 02:38:21;;;;;;;18.15;11.70;;;3.20;82.90;;;;;;5014759;28;20026;-78
2021/12/03 02:40:48;;;;;;;19.45;11.13;;;3.30;83.20;;;;;;5014905;28;20038;-78
2021/12/03 02:43:14;;;;;;;14.90;9.57;;;3.30;83.10;;;;;;5015168;28;20034;-78
2021/12/03 02:45:40;;;;;;;18.05;10.38;;;3.20;83.40;;;;;;5021003;28;20049;-78
2021/12/03 02:48:06;;;;;;;13.52;9.93;;;3.20;83.50;;;;;;5015020;28;20030;-78
2021/12/03 02:50:32;;;;;;;14.65;9.63;;;3.10;83.70;;;;;;5014956;28;20479;-79
2021/12/03 02:53:00;;;;;;;13.52;9.18;;;3.20;83.70;;;;;;5015087;28;20029;-78
2021/12/03 02:55:27;;;;;;;11.43;8.55;;;3.20;83.60;;;;;;5014627;28;20030;-78
2021/12/03 02:57:53;;;;;;;13.40;9.88;;;3.30;83.40;;;;;;5015074;28;20026;-78
2021/12/03 03:00:22;;;;;;;14.32;9.05;;;3.30;83.50;;;;;;5014993;28;20061;-78
2021/12/03 03:02:48;;;;;;;16.17;10.57;;;3.30;83.80;;;;;;5014964;28;20034;-78
2021/12/03 03:05:16;;;;;;;12.73;9.45;;;3.30;83.90;;;;;;5014957;28;20033;-78
2021/12/03 03:07:43;;;;;;;18.88;9.80;;;3.30;83.70;;;;;;5014781;28;20358;-78
2021/12/03 03:10:14;;;;;;;18.35;9.52;;;3.20;83.80;;;;;;5014893;28;20072;-78
2021/12/03 03:12:40;;;;;;;12.90;8.63;;;3.30;84.00;;;;;;5015169;28;20022;-78
2021/12/03 03:15:08;;;;;;;15.07;9.77;;;3.30;84.10;;;;;;5013330;28;20026;-78
2021/12/03 03:17:34;;;;;;;12.25;8.82;;;3.20;84.20;;;;;;5014615;28;20067;-78
2021/12/03 03:20:00;;;;;;;15.15;10.27;;;3.30;84.50;;;;;;5014633;28;20101;-78
2021/12/03 03:22:27;;;;;;;13.57;7.90;;;3.30;84.30;;;;;;5014188;28;20057;-78
2021/12/03 03:24:55;;;;;;;9.10;6.00;;;3.20;84.50;;;;;;5014741;28;20104;-78
2021/12/03 03:27:24;;;;;;;12.63;9.27;;;3.20;84.80;;;;;;5014751;28;20508;-78
2021/12/03 03:29:51;;;;;;;11.18;7.20;;;3.30;85.20;;;;;;5014523;28;20081;-78
2021/12/03 03:32:18;;;;;;;12.38;8.32;;;3.30;84.80;;;;;;5014489;28;20041;-78
2021/12/03 03:34:44;;;;;;;9.60;7.32;;;3.50;85.10;;;;;;5034255;28;20484;-78
2021/12/03 03:37:10;;;;;;;14.52;8.98;;;3.50;85.00;;;;;;5031907;28;20051;-78
2021/12/03 03:39:36;;;;;;;18.17;10.35;;;3.60;84.60;;;;;;5026021;28;20026;-78
2021/12/03 03:42:01;;;;;;;15.20;8.35;;;3.60;84.50;;;;;;5032428;28;20562;-78
2021/12/03 03:44:30;;;;;;;14.88;7.50;;;3.60;84.40;;;;;;5034249;28;20484;-78
2021/12/03 03:46:56;;;;;;;14.80;7.75;;;3.60;84.30;;;;;;5034098;28;20048;-78
2021/12/03 03:49:23;;;;;;;15.90;8.98;;;3.50;84.50;;;;;;5019952;28;20041;-78
2021/12/03 03:51:50;;;;;;;15.07;9.23;;;3.50;84.70;;;;;;5012884;28;20029;-78
2021/12/03 03:54:17;;;;;;;11.48;8.55;;;3.60;84.70;;;;;;5021081;28;20048;-78
2021/12/03 03:56:43;;;;;;;10.85;8.52;;;3.70;84.90;;;;;;5037710;28;20033;-78
2021/12/03 03:59:09;;;;;;;8.77;6.50;;;3.70;85.10;;;;;;5037669;28;20476;-78
2021/12/03 04:01:35;;;;;;;9.45;5.80;;;3.70;85.00;;;;;;5037290;28;20029;-78
2021/12/03 04:04:01;;;;;;;12.10;7.05;;;3.70;85.00;;;;;;5032347;28;20034;-79
2021/12/03 04:06:27;;;;;;;6.30;4.75;;;3.70;85.40;;;;;;5017685;28;20662;-78
2021/12/03 04:08:52;;;;;;;12.70;6.95;;;3.70;85.50;;;;;;5017527;28;20034;-78
2021/12/03 04:11:22;;;;;;;8.98;6.85;;;3.70;85.70;;;;;;5031772;28;20033;-79
2021/12/03 04:13:47;;;;;;;5.97;5.03;;;3.70;85.90;;;;;;5016359;28;20029;-78
2021/12/03 04:16:14;;;;;;;10.55;4.85;;;3.80;86.10;;;;;;5018086;28;20556;-78
2021/12/03 04:18:39;;;;;;;6.85;4.45;;;3.80;86.10;;;;;;5015840;28;20041;-78
2021/12/03 04:21:05;;;;;;;8.18;6.65;;;3.80;86.20;;;;;;5017727;28;20034;-78
2021/12/03 04:23:31;;;;;;;8.18;5.93;;;3.90;86.20;;;;;;5015898;28;20033;-78
2021/12/03 04:25:57;;;;;;;8.15;6.38;;;4.00;86.10;;;;;;5024822;28;20475;-78
2021/12/03 04:28:22;;;;;;;8.88;6.28;;;4.00;86.10;;;;;;5017166;28;20060;-78
2021/12/03 04:30:50;;;;;;;10.95;7.22;;;4.00;86.30;;;;;;5021219;28;20044;-78
2021/12/03 04:33:16;;;;;;;13.20;5.97;;;4.00;86.50;;;;;;5031629;28;20029;-79
2021/12/03 04:35:45;;;;;;;9.73;6.95;;;3.90;86.50;;;;;;5017355;28;20022;-78
2021/12/03 04:38:11;;;;;;;9.18;6.50;;;4.00;86.70;;;;;;5017206;28;20021;-79
2021/12/03 04:40:38;;;;;;;14.38;6.43;;;4.00;86.60;;;;;;5016841;28;20641;-78
2021/12/03 04:43:05;;;;;;;5.05;3.85;;;4.00;86.80;;;;;;5015768;28;20592;-78
2021/12/03 04:45:31;;;;;;;4.40;3.97;;;4.10;86.60;;;;;;5022679;28;20030;-79
2021/12/03 04:47:58;;;;;;;9.23;6.53;;;4.10;86.40;;;;;;5016891;28;20030;-78
2021/12/03 04:50:26;;;;;;;8.15;6.45;;;4.10;86.60;;;;;;5016478;28;20022;-78
2021/12/03 04:52:52;;;;;;;11.48;6.97;;;4.10;86.60;;;;;;5017094;28;20512;-78
2021/12/03 04:55:19;;;;;;;10.57;6.05;;;4.20;86.40;;;;;;5016860;28;20082;-78
2021/12/03 04:57:45;;;;;;;9.23;6.10;;;4.20;86.30;;;;;;5016841;28;20029;-78
2021/12/03 05:00:16;;;;;;;10.70;6.63;;;4.20;86.40;;;;;;5016929;28;20028;-78
2021/12/03 05:02:42;;;;;;;8.63;5.38;;;4.20;86.30;;;;;;5016567;28;20429;-79
2021/12/03 05:05:08;;;;;;;6.03;4.68;;;4.30;86.00;;;;;;5016493;28;20030;-79
2021/12/03 05:10:03;;;;;;;7.32;6.10;;;4.20;86.10;;;;;;5016703;28;20091;-78
2021/12/03 05:12:28;;;;;;;12.82;6.60;;;4.20;86.20;;;;;;5015114;28;20113;-78
2021/12/03 05:14:54;;;;;;;10.52;6.80;;;4.20;86.30;;;;;;5016363;28;20493;-78
2021/12/03 05:17:20;;;;;;;7.35;5.50;;;4.20;86.40;;;;;;5016775;28;20026;-79
2021/12/03 05:19:46;;;;;;;8.65;6.55;;;4.20;86.70;;;;;;5016365;28;20039;-78
2021/12/03 05:22:13;;;;;;;9.90;6.05;;;4.20;86.80;;;;;;5016461;28;20033;-78
2021/12/03 05:24:40;;;;;;;9.57;6.40;;;4.20;86.70;;;;;;5021540;28;20025;-79
2021/12/03 05:27:06;;;;;;;11.65;6.30;;;4.20;86.90;;;;;;5035840;28;20033;-79
2021/12/03 05:29:32;;;;;;;10.18;6.72;;;4.20;87.00;;;;;;5034391;28;20045;-87
2021/12/03 05:31:58;;;;;;;8.18;4.63;;;4.20;87.00;;;;;;5029777;28;20033;-77
2021/12/03 05:34:24;;;;;;;6.25;4.88;;;4.20;87.30;;;;;;5029841;28;20024;-78
2021/12/03 05:36:50;;;;;;;7.15;5.53;;;4.20;87.70;;;;;;5015710;28;20033;-79
2021/12/03 05:39:16;;;;;;;8.48;4.55;;;4.10;87.90;;;;;;5016256;28;20543;-79
2021/12/03 05:41:42;;;;;;;4.63;3.38;;;4.10;88.00;;;;;;5015276;28;20037;-79
2021/12/03 05:44:08;;;;;;;8.43;2.83;;;4.20;88.00;;;;;;5015146;28;20030;-75
2021/12/03 05:55:14;;;;;;;5.72;3.85;;;3.60;90.30;;;;;;5082444;28;20427;-80
2021/12/03 05:57:42;;;;;;;5.25;4.47;;;3.60;90.90;;;;;;5049145;28;20033;-81
2021/12/03 06:00:13;;;;;;;6.13;4.38;;;3.70;90.90;;;;;;5050530;28;20079;-86
2021/12/03 06:02:39;;;;;;;5.75;4.78;;;4.00;90.60;;;;;;5049572;28;20022;-83
2021/12/03 06:05:06;;;;;;;5.63;3.90;;;4.20;90.10;;;;;;5052032;28;20111;-88
2021/12/03 06:07:32;;;;;;;9.63;4.38;;;4.30;89.50;;;;;;5052140;28;20049;-88
2021/12/03 06:09:57;;;;;;;5.90;4.35;;;4.40;89.70;;;;;;5052634;28;20375;-90
2021/12/03 06:12:25;;;;;;;5.32;4.55;;;4.50;89.20;;;;;;5049507;28;20472;-81
2021/12/03 06:14:51;;;;;;;6.78;3.80;;;4.50;89.40;;;;;;5031427;28;20105;-78
2021/12/03 06:17:17;;;;;;;7.93;4.38;;;4.60;89.20;;;;;;5032175;28;20065;-84
2021/12/03 06:19:43;;;;;;;7.68;4.20;;;4.60;89.20;;;;;;5031129;28;20022;-85
2021/12/03 06:22:10;;;;;;;7.40;4.20;;;4.70;89.10;;;;;;5033121;28;20400;-86
2021/12/03 06:24:37;;;;;;;7.72;4.05;;;4.70;88.80;;;;;;5031746;28;20022;-86
2021/12/03 06:27:04;;;;;;;5.18;3.42;;;4.70;88.90;;;;;;5031527;28;20752;-85
2021/12/03 06:29:40;;;;;;;6.00;3.90;;;4.70;88.80;;;;;;5030232;28;20026;-84
2021/12/03 06:32:09;;;;;;;8.70;4.53;;;4.70;88.90;;;;;;5045311;28;20041;-84
2021/12/03 06:34:35;;;;;;;7.00;4.75;;;4.70;89.10;;;;;;5018847;28;20060;-84
2021/12/03 06:37:01;;;;;;;7.72;4.20;;;4.70;89.10;;;;;;5030454;28;20030;-84
2021/12/03 06:39:27;;;;;;;9.18;5.90;;;4.70;89.10;;;;;;5035006;28;20018;-84
2021/12/03 06:41:52;;;;;;;7.47;4.38;;;4.70;89.20;;;;;;5031654;28;20104;-84
2021/12/03 06:44:18;;;;;;;5.32;4.05;;;4.70;89.20;;;;;;5030051;28;20030;-84
2021/12/03 06:46:44;;;;;;;7.85;4.47;;;4.70;89.10;;;;;;5040801;28;20030;-85
2021/12/03 06:49:10;;;;;;;6.28;4.03;;;4.70;89.40;;;;;;5011382;28;20034;-80
2021/12/03 06:51:43;;;;;;;5.60;3.95;;;4.80;89.60;;;;;;5011970;28;20030;-83
2021/12/03 06:54:10;;;;;;;5.38;3.63;;;4.80;89.70;;;;;;5041257;28;20068;-84
2021/12/03 06:56:51;;;;;;;4.75;2.97;;;4.80;89.60;;;;;;5045722;28;20028;-84
2021/12/03 06:59:18;;;;;;;9.05;4.43;;;4.70;89.50;;;;;;5031341;28;20097;-84
2021/12/03 07:01:44;;;;;;;8.48;4.68;;;4.70;89.90;;;;;;5031106;28;20022;-84
2021/12/03 07:04:10;;;;;;;5.93;4.03;;;4.80;89.70;;;;;;5050328;28;20099;-84
2021/12/03 07:06:36;;;;;;;8.23;4.50;;;4.80;89.80;;;;;;5036508;28;20036;-84
2021/12/03 07:09:22;;;;;;;8.48;5.40;;;4.80;89.90;;;;;;5037549;28;20029;-83
2021/12/03 07:11:48;;;;;;;5.60;4.03;;;4.90;90.20;;;;;;5037353;28;20036;-85
2021/12/03 07:14:14;;;;;;;6.68;4.05;;;4.80;90.10;;;;;;5037580;28;20084;-84
2021/12/03 07:16:40;;;;;;;5.38;3.75;;;4.90;90.20;;;;;;5051968;28;20029;-84
2021/12/03 07:19:06;;;;;;;8.48;4.47;;;4.90;90.50;;;;;;5056057;28;20047;-84
2021/12/03 07:21:32;;;;;;;10.52;4.47;;;4.90;90.80;;;;;;5057234;28;20467;-84
2021/12/03 07:23:58;;;;;;;9.45;5.20;;;5.00;90.70;;;;;;5054519;28;20060;-84
2021/12/03 07:26:26;;;;;;;8.02;3.75;;;5.00;90.70;;;;;;5057302;28;20029;-84
2021/12/03 07:28:54;;;;;;;7.70;4.82;;;5.10;91.00;;;;;;5054619;28;20040;-84
2021/12/03 07:31:20;;;;;;;4.43;3.10;;;5.10;90.90;;;;;;5048452;28;20037;-84
2021/12/03 07:33:46;;;;;;;7.75;4.47;;;5.10;91.10;;;;;;5037222;28;20383;-84
2021/12/03 07:36:12;;;;;;;3.65;3.30;;;5.20;91.30;;;;;;5051928;28;20053;-84
2021/12/03 07:38:38;;;;;;;7.47;3.92;;;5.20;91.20;;;;;;5053097;28;20018;-84
2021/12/03 07:41:04;;;;;;;5.38;2.97;;;5.30;91.40;;;;;;5037155;28;20905;-84
2021/12/03 07:43:33;;;;;;;5.20;3.30;;;5.50;91.50;;;;;;5037021;28;20017;-84
2021/12/03 07:46:00;;;;;;;4.00;2.88;;;5.50;91.40;;;;;;5050402;28;20040;-84
2021/12/03 07:48:25;;;;;;;5.20;3.60;;;5.60;91.70;;;;;;5044437;28;20032;-84
2021/12/03 07:50:53;;;;;;;5.95;4.07;;;5.60;91.70;;;;;;5051551;28;20464;-83
2021/12/03 07:53:19;;;;;;;4.68;3.05;;;5.70;91.80;;;;;;5056648;28;20118;-85
2021/12/03 07:55:46;;;;;;;9.05;4.75;;;5.80;92.00;;;;;;5056810;28;20091;-84
2021/12/03 07:58:12;;;;;;;7.95;3.80;;;5.80;91.80;;;;;;5039984;28;20410;-85
2021/12/03 08:00:40;;;;;;;14.75;3.80;;;5.90;92.00;;;;;;5044108;28;20127;-85
2021/12/03 08:03:06;;;;;;;4.43;3.20;;;5.90;91.90;;;;;;5056650;28;20057;-85
2021/12/03 08:05:32;;;;;;;5.22;2.70;;;6.00;91.80;;;;;;5056500;28;20099;-85
2021/12/03 08:07:58;;;;;;;8.90;3.08;;;6.00;91.70;;;;;;5035963;28;20025;-85
2021/12/03 08:10:25;;;;;;;5.00;3.30;;;6.00;91.80;;;;;;5036656;28;20113;-85
2021/12/03 08:12:51;;;;;;;6.95;4.28;;;6.00;91.80;;;;;;5036680;28;20033;-85
2021/12/03 08:15:17;;;;;;;3.47;2.97;;;6.10;91.70;;;;;;5037183;28;20488;-85
2021/12/03 08:17:47;;;;;;;4.53;3.00;;;6.10;91.80;;;;;;5055440;28;20063;-85
2021/12/03 08:20:13;;;;;;;2.85;2.00;;;6.10;91.70;;;;;;5056312;28;20490;-85
2021/12/03 08:22:39;;;;;;;6.95;3.53;;;6.00;91.70;;;;;;5055815;28;20028;-85
2021/12/03 08:25:05;;;;;;;3.33;2.50;;;6.10;91.70;;;;;;5047902;28;20124;-85
2021/12/03 08:27:31;;;;;;;6.93;3.10;;;6.10;91.80;;;;;;5036184;28;20037;-85
2021/12/03 08:29:57;;;;;;;4.90;2.95;;;6.10;91.90;;;;;;5036235;28;20028;-85
2021/12/03 08:32:23;;;;;;;3.58;2.50;;;6.20;91.80;;;;;;5059436;28;20028;-85
2021/12/03 08:34:48;;;;;;;5.50;3.80;;;6.20;91.90;;;;;;5054673;28;20696;-84
2021/12/03 08:37:14;;;;;;;3.55;2.70;;;6.20;92.00;;;;;;5052803;28;20380;-84
2021/12/03 08:39:40;;;;;;;3.50;3.17;;;6.20;92.20;;;;;;5071531;28;20033;-84
2021/12/03 08:42:08;;;;;;;3.38;2.55;;;6.30;92.20;;;;;;5055619;28;20021;-84
2021/12/03 08:44:34;;;;;;;5.88;2.95;;;6.30;92.40;;;;;;5041565;28;20033;-83
2021/12/03 08:47:05;;;;;;;4.18;3.17;;;6.50;92.30;;;;;;5055930;28;20096;-84
2021/12/03 08:49:46;;;;;;;4.25;2.08;;;6.50;92.30;;;;;;5055808;28;20063;-84
2021/12/03 08:54:54;;;;;;;4.93;2.42;;;6.60;92.10;;;;;;5055560;28;20052;-83
2021/12/03 08:57:31;;;;;;;3.80;2.72;;;6.70;92.20;;;;;;5054241;28;20032;-84
2021/12/03 09:00:21;;;;;;;3.88;2.88;;;6.70;92.00;;;;;;5055319;28;20020;-83
2021/12/03 09:02:48;;;;;;;3.65;2.97;;;6.80;92.00;;;;;;5014764;28;20053;-83
2021/12/03 09:05:14;;;;;;;6.95;2.78;;;6.90;92.00;;;;;;5015812;28;20026;-83
2021/12/03 09:07:41;;;;;;;5.72;3.17;;;6.90;92.00;;;;;;5015603;28;20064;-83
2021/12/03 09:10:13;;;;;;;5.15;2.67;;;6.90;92.00;;;;;;5026961;28;20029;-83
2021/12/03 09:12:39;;;;;;;3.03;2.28;;;7.00;91.80;;;;;;5034228;28;20201;-83
2021/12/03 09:15:09;;;;;;;5.78;2.72;;;7.00;91.90;;;;;;5035307;28;20499;-83
2021/12/03 09:17:45;;;;;;;4.40;2.65;;;7.20;91.80;;;;;;5035974;28;20045;-83
2021/12/03 09:20:38;;;;;;;2.58;1.98;;;7.20;91.80;;;;;;5055312;28;20036;-82
2021/12/03 09:23:07;;;;;;;3.53;2.08;;;7.20;91.50;;;;;;5036822;28;20040;-83
2021/12/03 09:25:37;;;;;;;4.60;2.35;;;7.30;91.60;;;;;;5035160;28;20036;-83
2021/12/03 09:28:06;;;;;;;;;;;7.40;91.60;;;;;;5035686;28;20079;-83
2021/12/03 09:30:40;;;;;;;3.88;2.47;;;7.40;91.70;;;;;;5055156;28;19909;-82
2021/12/03 09:33:09;;;;;;;2.17;1.60;;;7.50;91.60;;;;;;5053323;28;20503;-82
2021/12/03 09:35:41;;;;;;;2.55;1.77;;;7.60;91.60;;;;;;5034853;28;20025;-82
2021/12/03 09:38:07;;;;;;;2.72;2.13;;;7.60;91.40;;;;;;5034872;28;20018;-80
2021/12/03 09:40:36;;;;;;;4.35;2.15;;;7.70;91.50;;;;;;5034944;28;20017;-83
2021/12/03 09:43:04;;;;;;;3.13;2.60;;;7.70;91.30;;;;;;5033253;28;20030;-83
2021/12/03 09:45:30;;;;;;;3.83;2.70;;;7.80;91.40;;;;;;5029994;28;20116;-83
2021/12/03 09:47:56;;;;;;;3.67;2.47;;;7.80;91.10;;;;;;5030337;28;20500;-83
2021/12/03 09:50:23;;;;;;;4.38;2.40;;;7.90;91.20;;;;;;5015247;28;20109;-83
2021/12/03 09:55:33;;;;;;;3.03;1.88;;;7.90;91.40;;;;;;5034669;28;20040;-82
2021/12/03 09:58:10;;;;;;;4.53;2.50;;;8.00;91.40;;;;;;5034808;28;20496;-82
2021/12/03 10:00:45;;;;;;;3.75;2.13;;;8.00;91.20;;;;;;5034802;28;20022;-82
2021/12/03 10:16:42;;;;;;;4.93;2.70;;;8.40;91.10;;;;;;5049953;28;20025;-82
2021/12/03 10:19:55;;;;;;;4.28;2.72;;;8.40;91.20;;;;;;5034716;28;20021;-80
2021/12/03 10:30:12;;;;;;;2.88;2.60;;;8.80;90.70;;;;;;5053966;28;20029;-82
2021/12/03 10:32:48;;;;;;;3.00;2.25;;;8.80;90.60;;;;;;5014587;28;20396;-82
2021/12/03 10:49:14;;;;;;;2.85;2.08;;;9.30;90.80;;;;;;5038421;28;20040;-79
2021/12/03 10:54:21;;;;;;;4.68;2.40;;;9.40;90.70;;;;;;5037810;28;20057;-82
2021/12/03 11:47:40;;;;;;;4.60;2.72;;;10.30;91.10;;;;;;5052327;28;20048;-79
2021/12/03 12:16:08;;;;;;;2.95;2.65;;;10.80;90.60;;;;;;5016753;28;20034;-80
2021/12/03 13:13:48;;;;;;;9.35;5.43;;;11.50;90.70;;;;;;5035620;28;20483;-82
2021/12/03 14:37:54;;;;;;;7.93;3.78;;;12.80;90.40;;;;;;5038273;28;20048;-79
2021/12/03 14:46:12;;;;;;;8.05;4.40;;;12.80;90.30;;;;;;5049292;28;20132;-79
2021/12/03 14:57:08;;;;;;;7.05;3.60;;;12.80;90.00;;;;;;5038034;28;20037;-79
2021/12/03 14:59:36;;;;;;;5.75;3.65;;;12.90;90.00;;;;;;5037782;28;20018;-79
2021/12/03 15:02:20;;;;;;;4.10;2.85;;;12.90;89.90;;;;;;5037269;28;20065;-79
2021/12/03 15:07:34;;;;;;;4.28;2.80;;;12.90;90.10;;;;;;5046271;28;20029;-80
2021/12/03 15:10:03;;;;;;;8.10;2.63;;;13.00;90.30;;;;;;5037614;28;20024;-79
2021/12/03 15:37:25;;;;;;;3.33;2.30;;;12.90;90.10;;;;;;5057142;28;20043;-80
2021/12/03 16:04:32;;;;;;;3.95;1.60;;;12.80;90.20;;;;;;5035989;28;20029;-78
2021/12/03 16:23:25;;;;;;;5.63;1.75;;;12.80;89.90;;;;;;4985338;28;20019;-77
2021/12/03 16:45:07;;;;;;;3.83;2.33;;;12.80;90.50;;;;;;5034029;28;20052;-77
2021/12/03 16:50:44;;;;;;;3.60;2.67;;;12.80;90.60;;;;;;5033236;28;20028;-77
2021/12/03 16:53:04;;;;;;;5.25;3.20;;;12.80;90.30;;;;;;5033689;28;20037;-76
2021/12/03 16:56:11;;;;;;;9.65;3.00;;;12.80;90.10;;;;;;5034950;28;20029;-75
2021/12/03 16:58:39;;;;;;;3.90;2.10;;;12.80;90.10;;;;;;5034062;28;20071;-76
2021/12/03 17:03:57;;;;;;;;;;;12.70;90.00;;;;;;5033737;28;20034;-75
2021/12/03 17:11:54;;;;;;;4.72;2.22;;;12.70;90.10;;;;;;5032737;28;20018;-76
2021/12/03 17:14:46;;;;;;;2.38;1.60;;;12.70;90.00;;;;;;5031105;28;20025;-76
2021/12/03 17:17:50;;;;;;;2.83;2.00;;;12.70;89.90;;;;;;5031708;28;20038;-76
2021/12/03 17:21:03;;;;;;;4.15;2.40;;;12.60;90.10;;;;;;5028483;28;20029;-76
2021/12/03 17:57:25;;;;;;;8.02;3.83;;;12.70;90.30;;;;;;5034441;28;20025;-74
2021/12/03 17:59:52;;;;;;;7.30;4.78;;;12.70;90.20;;;;;;5030298;28;20380;-74
2021/12/03 18:02:43;;;;;;;8.85;6.03;;;12.70;90.30;;;;;;5032553;28;20045;-74
2021/12/03 18:05:28;;;;;;;8.68;3.28;;;12.70;90.30;;;;;;5033909;28;20021;-74
2021/12/03 18:43:42;;;;;;;15.95;5.47;;;12.70;90.60;;;;;;5048142;28;20119;-74
2021/12/03 18:56:33;;;;;;;8.73;3.63;;;12.80;90.60;;;;;;5033749;28;20444;-74
2021/12/03 18:59:04;;;;;;;8.38;4.22;;;12.80;90.40;;;;;;5033275;28;20068;-74
2021/12/03 19:01:32;;;;;;;10.00;3.50;;;12.80;90.40;;;;;;5036185;28;20026;-74
2021/12/03 19:06:36;;;;;;;10.65;5.13;;;12.80;90.50;;;;;;5037073;28;20533;-73
2021/12/03 19:09:09;;;;;;;11.90;2.92;;;12.80;90.50;;;;;;5036251;28;20037;-74
2021/12/03 19:11:41;;;;;;;7.13;3.03;;;12.80;90.20;;;;;;5035626;28;20039;-73
2021/12/03 19:14:07;;;;;;;12.90;4.38;;;12.80;90.20;;;;;;5036634;28;20410;-73
2021/12/03 19:16:34;;;;;;;5.90;2.53;;;12.80;90.30;;;;;;5034751;28;20453;-73
2021/12/03 19:19:03;;;;;;;7.82;2.83;;;12.80;90.20;;;;;;5043341;28;20502;-73
2021/12/03 19:21:33;;;;;;;12.82;4.47;;;12.80;90.20;;;;;;5035463;28;20033;-76
2021/12/03 19:24:00;;;;;;;13.20;3.57;;;12.90;90.20;;;;;;5035854;28;20036;-75
2021/12/03 19:26:28;;;;;;;7.97;2.63;;;12.80;90.00;;;;;;5036155;28;20022;-75
2021/12/03 19:28:56;;;;;;;8.07;3.20;;;12.90;90.10;;;;;;5036571;28;20033;-77
2021/12/03 19:31:24;;;;;;;8.60;2.22;;;12.90;90.00;;;;;;5036556;28;20022;-77
2021/12/03 19:33:50;;;;;;;6.40;2.40;;;12.90;89.80;;;;;;5036191;28;20037;-74
2021/12/03 19:36:22;;;;;;;3.42;1.90;;;12.90;89.90;;;;;;5037140;28;20060;-77
2021/12/03 19:38:54;;;;;;;9.20;3.03;;;12.90;89.90;;;;;;5035304;28;20108;-76
2021/12/03 19:41:46;;;;;;;10.50;2.70;;;12.90;89.80;;;;;;5033274;28;20048;-76
2021/12/03 19:44:11;;;;;;;6.95;2.20;;;12.90;89.80;;;;;;5035881;28;20049;-75
2021/12/03 19:46:41;;;;;;;7.15;2.45;;;12.90;89.80;;;;;;5041243;28;20765;-77
2021/12/03 19:51:42;;;;;;;4.00;1.73;;;12.90;90.00;;;;;;5037602;28;19921;-77
2021/12/03 19:54:08;;;;;;;1.65;1.02;;;12.90;90.10;;;;;;5035859;28;20057;-76
2021/12/03 19:56:34;;;;;;;5.60;2.35;;;12.90;90.10;;;;;;5036398;28;20060;-77
2021/12/03 19:59:01;;;;;;;8.30;1.88;;;12.80;90.10;;;;;;5033830;28;20116;-75
2021/12/03 20:01:33;;;;;;;5.95;2.30;;;12.90;90.20;;;;;;5036091;28;20040;-77
2021/12/03 20:03:59;;;;;;;7.13;1.42;;;12.80;90.10;;;;;;5033408;28;20583;-76
2021/12/03 20:06:25;;;;;;;6.07;1.73;;;12.80;90.10;;;;;;5035984;28;20028;-72
2021/12/03 20:08:56;;;;;;;6.50;2.17;;;12.80;90.20;;;;;;5035622;28;20029;-75
2021/12/03 20:11:27;;;;;;;6.70;1.95;;;12.80;90.20;;;;;;5031979;28;20032;-76
2021/12/03 20:13:59;;;;;;;7.15;2.72;;;12.80;90.30;;;;;;5034725;28;20087;-75
2021/12/03 20:16:35;;;;;;;7.65;2.13;;;12.80;90.30;;;;;;5031646;28;20077;-76
2021/12/03 20:19:27;;;;;;;3.70;1.60;;;12.80;90.20;;;;;;5035346;28;20025;-75
2021/12/03 20:21:58;;;;;;;8.57;2.40;;;12.80;90.20;;;;;;5035600;28;20045;-75
2021/12/03 20:24:42;;;;;;;6.03;1.73;;;12.80;90.10;;;;;;5033619;28;20051;-75
2021/12/03 20:27:11;;;;;;;10.32;2.20;;;12.80;89.90;;;;;;5034009;28;20025;-75
2021/12/03 20:32:40;;;;;;;8.85;4.43;;;12.80;90.20;;;;;;5030724;28;20515;-75
2021/12/03 20:38:16;;;;;;;11.25;3.47;;;12.80;90.10;;;;;;5033746;28;20033;-78
2021/12/03 20:40:42;;;;;;;9.48;2.50;;;12.80;90.10;;;;;;5031909;28;20025;-74
2021/12/03 20:44:01;;;;;;;7.60;2.05;;;12.80;90.00;;;;;;5029630;28;20045;-75
2021/12/03 21:09:54;;;;;;;5.00;2.05;;;12.80;90.20;;;;;;5032379;28;20514;-72
2021/12/03 21:12:28;;;;;;;5.40;1.55;;;12.80;90.10;;;;;;5034938;28;20022;-78
2021/12/03 21:15:01;;;;;;;5.80;2.78;;;12.80;90.20;;;;;;5033302;28;20033;-74